sensor_id;sensor_type;location;lat;lon;timestamp;temperature;humidity
44447;DHT22;30152;52.066;5.358;2023-07-20T09:05:44;19.00;91.90
44447;DHT22;30152;52.066;5.358;2023-07-20T09:08:10;19.10;92.00
44447;DHT22;30152;52.066;5.358;2023-07-20T09:10:35;19.40;92.40
44447;DHT22;30152;52.066;5.358;2023-07-20T09:13:01;19.40;90.70
44447;DHT22;30152;52.066;5.358;2023-07-20T09:15:29;19.90;91.00
44447;DHT22;30152;52.066;5.358;2023-07-20T09:17:54;18.90;89.00
44447;DHT22;30152;52.066;5.358;2023-07-20T09:20:20;19.10;89.70
44447;DHT22;30152;52.066;5.358;2023-07-20T09:22:46;19.10;91.60
44447;DHT22;30152;52.066;5.358;2023-07-20T09:25:14;19.30;90.60
44447;DHT22;30152;52.066;5.358;2023-07-20T09:27:44;19.40;90.50
44447;DHT22;30152;52.066;5.358;2023-07-20T09:30:11;20.40;87.00
44447;DHT22;30152;52.066;5.358;2023-07-20T09:32:43;20.20;87.20
44447;DHT22;30152;52.066;5.358;2023-07-20T09:35:22;20.70;84.90
44447;DHT22;30152;52.066;5.358;2023-07-20T09:38:00;20.40;85.80
44447;DHT22;30152;52.066;5.358;2023-07-20T09:40:28;20.50;84.60
44447;DHT22;30152;52.066;5.358;2023-07-20T09:42:55;21.10;79.80
44447;DHT22;30152;52.066;5.358;2023-07-20T09:46:02;21.20;79.90
44447;DHT22;30152;52.066;5.358;2023-07-20T09:48:24;21.30;78.20
44447;DHT22;30152;52.066;5.358;2023-07-20T09:50:50;21.30;78.20
44447;DHT22;30152;52.066;5.358;2023-07-20T09:53:17;21.50;77.70
44447;DHT22;30152;52.066;5.358;2023-07-20T09:55:44;22.10;78.60
44447;DHT22;30152;52.066;5.358;2023-07-20T09:58:10;22.20;79.10
44447;DHT22;30152;52.066;5.358;2023-07-20T10:00:38;21.70;72.70
44447;DHT22;30152;52.066;5.358;2023-07-20T10:03:07;21.90;72.90
44447;DHT22;30152;52.066;5.358;2023-07-20T10:05:37;21.90;74.50
44447;DHT22;30152;52.066;5.358;2023-07-20T10:08:04;21.60;73.50
44447;DHT22;30152;52.066;5.358;2023-07-20T10:10:34;21.10;72.90
44447;DHT22;30152;52.066;5.358;2023-07-20T10:13:01;20.30;73.60
44447;DHT22;30152;52.066;5.358;2023-07-20T10:15:42;20.30;74.20
44447;DHT22;30152;52.066;5.358;2023-07-20T10:18:44;21.10;76.80
44447;DHT22;30152;52.066;5.358;2023-07-20T10:21:15;20.50;73.60
44447;DHT22;30152;52.066;5.358;2023-07-20T10:23:42;20.30;73.00
44447;DHT22;30152;52.066;5.358;2023-07-20T10:26:09;20.40;75.60
44447;DHT22;30152;52.066;5.358;2023-07-20T10:28:35;20.40;74.60
44447;DHT22;30152;52.066;5.358;2023-07-20T10:31:01;20.20;76.00
44447;DHT22;30152;52.066;5.358;2023-07-20T10:33:27;21.20;76.00
44447;DHT22;30152;52.066;5.358;2023-07-20T10:35:59;21.20;76.30
44447;DHT22;30152;52.066;5.358;2023-07-20T10:41:29;21.70;72.20
44447;DHT22;30152;52.066;5.358;2023-07-20T10:44:02;21.30;72.60
44447;DHT22;30152;52.066;5.358;2023-07-20T10:46:44;22.10;72.00
44447;DHT22;30152;52.066;5.358;2023-07-20T10:51:44;21.30;76.20
44447;DHT22;30152;52.066;5.358;2023-07-20T10:59:19;21.10;77.50
44447;DHT22;30152;52.066;5.358;2023-07-20T11:01:46;21.10;77.10
44447;DHT22;30152;52.066;5.358;2023-07-20T11:04:12;21.10;78.80
44447;DHT22;30152;52.066;5.358;2023-07-20T11:06:38;20.80;77.20
44447;DHT22;30152;52.066;5.358;2023-07-20T11:09:08;21.00;77.10
44447;DHT22;30152;52.066;5.358;2023-07-20T11:14:07;21.50;75.30
44447;DHT22;30152;52.066;5.358;2023-07-20T11:16:40;22.50;75.70
44447;DHT22;30152;52.066;5.358;2023-07-20T11:19:22;22.60;76.50
44447;DHT22;30152;52.066;5.358;2023-07-20T11:21:56;22.90;74.80
44447;DHT22;30152;52.066;5.358;2023-07-20T11:24:22;22.80;72.60
44447;DHT22;30152;52.066;5.358;2023-07-20T11:26:53;22.20;76.20
44447;DHT22;30152;52.066;5.358;2023-07-20T11:29:20;21.70;73.50
44447;DHT22;30152;52.066;5.358;2023-07-20T11:31:47;21.60;73.80
44447;DHT22;30152;52.066;5.358;2023-07-20T11:36:44;21.70;76.90
44447;DHT22;30152;52.066;5.358;2023-07-20T11:39:10;21.40;74.60
44447;DHT22;30152;52.066;5.358;2023-07-20T11:41:36;21.50;76.40
44447;DHT22;30152;52.066;5.358;2023-07-20T11:44:03;21.90;75.40
44447;DHT22;30152;52.066;5.358;2023-07-20T11:46:29;21.70;75.70
44447;DHT22;30152;52.066;5.358;2023-07-20T11:48:59;21.90;77.70
44447;DHT22;30152;52.066;5.358;2023-07-20T11:51:28;22.00;77.90
44447;DHT22;30152;52.066;5.358;2023-07-20T11:53:56;21.80;73.70
44447;DHT22;30152;52.066;5.358;2023-07-20T11:56:25;21.50;75.90
44447;DHT22;30152;52.066;5.358;2023-07-20T11:58:55;21.50;76.40
44447;DHT22;30152;52.066;5.358;2023-07-20T12:01:23;21.60;73.30
44447;DHT22;30152;52.066;5.358;2023-07-20T12:06:15;21.30;73.50
44447;DHT22;30152;52.066;5.358;2023-07-20T12:08:41;21.60;76.00
44447;DHT22;30152;52.066;5.358;2023-07-20T12:11:07;21.80;76.70
44447;DHT22;30152;52.066;5.358;2023-07-20T12:13:43;21.50;74.00
44447;DHT22;30152;52.066;5.358;2023-07-20T12:16:16;21.30;76.10
44447;DHT22;30152;52.066;5.358;2023-07-20T12:18:43;21.40;75.10
44447;DHT22;30152;52.066;5.358;2023-07-20T12:21:09;22.00;73.80
44447;DHT22;30152;52.066;5.358;2023-07-20T12:23:39;21.70;75.10
44447;DHT22;30152;52.066;5.358;2023-07-20T12:26:08;21.60;76.00
44447;DHT22;30152;52.066;5.358;2023-07-20T12:28:39;21.80;74.80
44447;DHT22;30152;52.066;5.358;2023-07-20T12:31:09;22.00;73.70
44447;DHT22;30152;52.066;5.358;2023-07-20T12:33:36;21.70;73.50
44447;DHT22;30152;52.066;5.358;2023-07-20T12:36:02;21.60;73.00
44447;DHT22;30152;52.066;5.358;2023-07-20T12:38:28;21.50;75.10
44447;DHT22;30152;52.066;5.358;2023-07-20T12:40:54;21.60;74.70
44447;DHT22;30152;52.066;5.358;2023-07-20T12:43:22;22.00;76.40
44447;DHT22;30152;52.066;5.358;2023-07-20T12:45:48;21.40;76.70
44447;DHT22;30152;52.066;5.358;2023-07-20T12:48:13;21.60;77.40
44447;DHT22;30152;52.066;5.358;2023-07-20T12:50:39;21.50;76.60
44447;DHT22;30152;52.066;5.358;2023-07-20T12:53:05;21.30;77.40
44447;DHT22;30152;52.066;5.358;2023-07-20T12:55:31;21.20;78.50
44447;DHT22;30152;52.066;5.358;2023-07-20T12:57:56;21.30;79.00
44447;DHT22;30152;52.066;5.358;2023-07-20T13:00:22;21.50;79.30
44447;DHT22;30152;52.066;5.358;2023-07-20T13:02:49;21.40;76.90
44447;DHT22;30152;52.066;5.358;2023-07-20T13:05:14;21.40;77.10
44447;DHT22;30152;52.066;5.358;2023-07-20T13:07:40;21.60;78.00
44447;DHT22;30152;52.066;5.358;2023-07-20T13:10:07;21.50;78.10
44447;DHT22;30152;52.066;5.358;2023-07-20T13:12:34;21.50;77.00
44447;DHT22;30152;52.066;5.358;2023-07-20T13:15:02;21.00;76.50
44447;DHT22;30152;52.066;5.358;2023-07-20T13:17:31;21.30;77.20
44447;DHT22;30152;52.066;5.358;2023-07-20T13:22:22;20.80;76.90
44447;DHT22;30152;52.066;5.358;2023-07-20T13:24:49;21.30;77.70
44447;DHT22;30152;52.066;5.358;2023-07-20T13:27:16;21.30;77.70
44447;DHT22;30152;52.066;5.358;2023-07-20T13:29:42;21.50;76.50
44447;DHT22;30152;52.066;5.358;2023-07-20T13:32:08;21.60;75.40
44447;DHT22;30152;52.066;5.358;2023-07-20T13:34:33;21.80;77.70
44447;DHT22;30152;52.066;5.358;2023-07-20T13:37:00;21.90;75.50
44447;DHT22;30152;52.066;5.358;2023-07-20T13:41:52;21.50;76.90
44447;DHT22;30152;52.066;5.358;2023-07-20T13:46:48;21.80;76.50
44447;DHT22;30152;52.066;5.358;2023-07-20T13:49:14;21.70;76.40
44447;DHT22;30152;52.066;5.358;2023-07-20T13:54:06;22.60;75.80
44447;DHT22;30152;52.066;5.358;2023-07-20T13:56:32;22.00;75.70
44447;DHT22;30152;52.066;5.358;2023-07-20T13:58:57;21.80;77.10
44447;DHT22;30152;52.066;5.358;2023-07-20T14:01:23;22.30;77.50
44447;DHT22;30152;52.066;5.358;2023-07-20T14:03:53;21.70;77.10
44447;DHT22;30152;52.066;5.358;2023-07-20T14:06:19;21.80;76.10
44447;DHT22;30152;52.066;5.358;2023-07-20T14:08:44;21.70;75.60
44447;DHT22;30152;52.066;5.358;2023-07-20T14:13:40;21.50;76.10
44447;DHT22;30152;52.066;5.358;2023-07-20T14:16:05;21.70;76.90
44447;DHT22;30152;52.066;5.358;2023-07-20T14:20:57;21.50;75.70
44447;DHT22;30152;52.066;5.358;2023-07-20T14:23:23;22.00;77.40
44447;DHT22;30152;52.066;5.358;2023-07-20T14:25:49;22.30;76.70
44447;DHT22;30152;52.066;5.358;2023-07-20T14:28:14;22.60;75.00
44447;DHT22;30152;52.066;5.358;2023-07-20T14:30:40;21.80;74.50
44447;DHT22;30152;52.066;5.358;2023-07-20T14:33:06;21.90;74.30
44447;DHT22;30152;52.066;5.358;2023-07-20T14:35:31;21.90;75.00
44447;DHT22;30152;52.066;5.358;2023-07-20T14:37:57;22.20;76.10
44447;DHT22;30152;52.066;5.358;2023-07-20T14:40:23;22.00;75.60
44447;DHT22;30152;52.066;5.358;2023-07-20T14:42:50;22.50;76.60
44447;DHT22;30152;52.066;5.358;2023-07-20T14:45:16;22.70;75.60
44447;DHT22;30152;52.066;5.358;2023-07-20T14:47:42;22.80;74.70
44447;DHT22;30152;52.066;5.358;2023-07-20T14:50:08;23.40;75.30
44447;DHT22;30152;52.066;5.358;2023-07-20T14:52:34;23.00;72.50
44447;DHT22;30152;52.066;5.358;2023-07-20T14:54:59;22.60;72.00
44447;DHT22;30152;52.066;5.358;2023-07-20T14:57:25;22.60;72.70
44447;DHT22;30152;52.066;5.358;2023-07-20T14:59:51;22.50;73.20
44447;DHT22;30152;52.066;5.358;2023-07-20T15:02:18;22.50;73.50
44447;DHT22;30152;52.066;5.358;2023-07-20T15:04:51;22.30;74.70
44447;DHT22;30152;52.066;5.358;2023-07-20T15:07:19;22.20;75.10
44447;DHT22;30152;52.066;5.358;2023-07-20T15:09:45;22.40;74.70
44447;DHT22;30152;52.066;5.358;2023-07-20T15:12:11;22.40;75.80
44447;DHT22;30152;52.066;5.358;2023-07-20T15:14:41;22.70;76.30
44447;DHT22;30152;52.066;5.358;2023-07-20T15:17:08;23.10;75.50
44447;DHT22;30152;52.066;5.358;2023-07-20T15:19:34;22.70;73.90
44447;DHT22;30152;52.066;5.358;2023-07-20T15:22:02;22.50;74.40
44447;DHT22;30152;52.066;5.358;2023-07-20T15:24:32;21.70;75.40
44447;DHT22;30152;52.066;5.358;2023-07-20T15:26:59;21.90;77.70
44447;DHT22;30152;52.066;5.358;2023-07-20T15:29:24;21.90;76.70
44447;DHT22;30152;52.066;5.358;2023-07-20T15:31:50;22.00;76.90
44447;DHT22;30152;52.066;5.358;2023-07-20T15:34:15;22.00;77.20
44447;DHT22;30152;52.066;5.358;2023-07-20T15:36:41;21.90;75.90
44447;DHT22;30152;52.066;5.358;2023-07-20T15:39:10;22.00;75.80
44447;DHT22;30152;52.066;5.358;2023-07-20T15:41:35;21.80;76.20
44447;DHT22;30152;52.066;5.358;2023-07-20T15:48:53;21.50;76.00
44447;DHT22;30152;52.066;5.358;2023-07-20T15:51:18;21.50;76.20
44447;DHT22;30152;52.066;5.358;2023-07-20T15:53:44;21.20;75.20
44447;DHT22;30152;52.066;5.358;2023-07-20T15:56:09;21.30;75.70
44447;DHT22;30152;52.066;5.358;2023-07-20T16:01:01;21.20;75.90
44447;DHT22;30152;52.066;5.358;2023-07-20T16:03:26;21.10;75.90
44447;DHT22;30152;52.066;5.358;2023-07-20T16:05:53;21.30;76.60
44447;DHT22;30152;52.066;5.358;2023-07-20T16:08:18;21.30;77.70
44447;DHT22;30152;52.066;5.358;2023-07-20T16:10:44;21.30;76.70
44447;DHT22;30152;52.066;5.358;2023-07-20T16:13:09;21.30;78.00
44447;DHT22;30152;52.066;5.358;2023-07-20T16:15:35;21.60;78.80
44447;DHT22;30152;52.066;5.358;2023-07-20T16:20:27;21.20;77.10
44447;DHT22;30152;52.066;5.358;2023-07-20T16:22:53;21.30;77.90
44447;DHT22;30152;52.066;5.358;2023-07-20T16:25:18;21.00;75.90
44447;DHT22;30152;52.066;5.358;2023-07-20T16:27:44;20.90;76.40
44447;DHT22;30152;52.066;5.358;2023-07-20T16:30:10;21.10;76.70
44447;DHT22;30152;52.066;5.358;2023-07-20T16:32:36;20.90;76.30
44447;DHT22;30152;52.066;5.358;2023-07-20T16:35:02;20.80;76.70
44447;DHT22;30152;52.066;5.358;2023-07-20T16:37:28;20.90;77.80
44447;DHT22;30152;52.066;5.358;2023-07-20T16:39:53;20.90;77.40
44447;DHT22;30152;52.066;5.358;2023-07-20T16:42:19;21.00;77.90
44447;DHT22;30152;52.066;5.358;2023-07-20T16:44:51;21.00;75.80
44447;DHT22;30152;52.066;5.358;2023-07-20T16:47:17;20.90;76.50
44447;DHT22;30152;52.066;5.358;2023-07-20T16:49:43;20.80;76.90
44447;DHT22;30152;52.066;5.358;2023-07-20T16:52:09;21.00;77.00
44447;DHT22;30152;52.066;5.358;2023-07-20T16:54:34;20.90;77.30
44447;DHT22;30152;52.066;5.358;2023-07-20T16:57:00;20.80;76.80
44447;DHT22;30152;52.066;5.358;2023-07-20T16:59:25;20.90;77.50
44447;DHT22;30152;52.066;5.358;2023-07-20T17:04:17;20.70;77.90
44447;DHT22;30152;52.066;5.358;2023-07-20T17:06:44;20.70;78.80
44447;DHT22;30152;52.066;5.358;2023-07-20T17:09:12;20.60;77.70
44447;DHT22;30152;52.066;5.358;2023-07-20T17:14:04;20.50;77.60
44447;DHT22;30152;52.066;5.358;2023-07-20T17:16:30;20.50;78.70
44447;DHT22;30152;52.066;5.358;2023-07-20T17:18:56;20.70;79.40
44447;DHT22;30152;52.066;5.358;2023-07-20T17:21:22;20.50;78.90
44447;DHT22;30152;52.066;5.358;2023-07-20T17:23:50;20.50;79.70
44447;DHT22;30152;52.066;5.358;2023-07-20T17:26:16;20.40;80.00
44447;DHT22;30152;52.066;5.358;2023-07-20T17:28:42;20.60;79.40
44447;DHT22;30152;52.066;5.358;2023-07-20T17:31:07;20.40;79.60
44447;DHT22;30152;52.066;5.358;2023-07-20T17:33:33;20.20;78.60
44447;DHT22;30152;52.066;5.358;2023-07-20T17:40:51;20.50;78.90
44447;DHT22;30152;52.066;5.358;2023-07-20T17:43:18;20.50;79.40
44447;DHT22;30152;52.066;5.358;2023-07-20T17:45:48;20.40;79.40
44447;DHT22;30152;52.066;5.358;2023-07-20T17:48:14;20.40;79.80
44447;DHT22;30152;52.066;5.358;2023-07-20T17:50:39;20.40;80.80
44447;DHT22;30152;52.066;5.358;2023-07-20T17:55:31;20.40;82.40
44447;DHT22;30152;52.066;5.358;2023-07-20T17:57:57;20.30;82.70
44447;DHT22;30152;52.066;5.358;2023-07-20T18:00:23;20.20;83.90
44447;DHT22;30152;52.066;5.358;2023-07-20T18:02:49;20.20;83.80
44447;DHT22;30152;52.066;5.358;2023-07-20T18:05:15;20.20;84.30
44447;DHT22;30152;52.066;5.358;2023-07-20T18:07:42;20.20;84.40
44447;DHT22;30152;52.066;5.358;2023-07-20T18:12:34;20.10;86.10
44447;DHT22;30152;52.066;5.358;2023-07-20T18:15:00;19.80;86.10
44447;DHT22;30152;52.066;5.358;2023-07-20T18:17:29;19.60;87.20
44447;DHT22;30152;52.066;5.358;2023-07-20T18:19:54;19.90;87.30
44447;DHT22;30152;52.066;5.358;2023-07-20T18:22:20;19.80;88.10
44447;DHT22;30152;52.066;5.358;2023-07-20T18:24:45;19.70;88.50
44447;DHT22;30152;52.066;5.358;2023-07-20T18:32:04;19.70;88.20
44447;DHT22;30152;52.066;5.358;2023-07-20T18:34:30;19.70;89.40
44447;DHT22;30152;52.066;5.358;2023-07-20T18:36:55;19.70;90.00
44447;DHT22;30152;52.066;5.358;2023-07-20T18:39:21;19.70;90.00
44447;DHT22;30152;52.066;5.358;2023-07-20T18:41:46;19.70;90.00
44447;DHT22;30152;52.066;5.358;2023-07-20T18:44:12;19.50;90.10
44447;DHT22;30152;52.066;5.358;2023-07-20T18:46:37;19.60;90.40
44447;DHT22;30152;52.066;5.358;2023-07-20T18:49:04;19.50;90.50
44447;DHT22;30152;52.066;5.358;2023-07-20T18:51:30;19.50;90.50
44447;DHT22;30152;52.066;5.358;2023-07-20T18:56:23;19.50;90.70
44447;DHT22;30152;52.066;5.358;2023-07-20T19:03:41;19.40;90.70
44447;DHT22;30152;52.066;5.358;2023-07-20T19:06:07;19.50;91.00
44447;DHT22;30152;52.066;5.358;2023-07-20T19:08:32;19.50;90.90
44447;DHT22;30152;52.066;5.358;2023-07-20T19:11:01;19.60;90.90
44447;DHT22;30152;52.066;5.358;2023-07-20T19:13:32;19.60;91.10
44447;DHT22;30152;52.066;5.358;2023-07-20T19:15:57;19.50;90.50
44447;DHT22;30152;52.066;5.358;2023-07-20T19:18:25;19.50;91.00
44447;DHT22;30152;52.066;5.358;2023-07-20T19:20:51;19.40;91.30
44447;DHT22;30152;52.066;5.358;2023-07-20T19:23:17;19.30;91.40
44447;DHT22;30152;52.066;5.358;2023-07-20T19:28:09;19.20;91.80
44447;DHT22;30152;52.066;5.358;2023-07-20T19:30:35;19.10;92.10
44447;DHT22;30152;52.066;5.358;2023-07-20T19:33:01;19.10;92.50
44447;DHT22;30152;52.066;5.358;2023-07-20T19:35:26;19.10;92.40
44447;DHT22;30152;52.066;5.358;2023-07-20T19:37:52;18.60;92.70
44447;DHT22;30152;52.066;5.358;2023-07-20T19:42:43;18.80;92.90
44447;DHT22;30152;52.066;5.358;2023-07-20T19:45:14;18.60;93.40
44447;DHT22;30152;52.066;5.358;2023-07-20T19:47:40;18.40;93.70
44447;DHT22;30152;52.066;5.358;2023-07-20T19:50:06;18.30;94.20
44447;DHT22;30152;52.066;5.358;2023-07-20T19:52:32;17.80;94.50
44447;DHT22;30152;52.066;5.358;2023-07-20T19:54:58;18.20;95.20
44447;DHT22;30152;52.066;5.358;2023-07-20T19:57:23;17.80;95.50
44447;DHT22;30152;52.066;5.358;2023-07-20T19:59:49;17.90;95.70
44447;DHT22;30152;52.066;5.358;2023-07-20T20:02:15;20.70;96.80
44447;DHT22;30152;52.066;5.358;2023-07-20T20:07:07;17.80;96.20
44447;DHT22;30152;52.066;5.358;2023-07-20T20:09:38;17.60;96.60
44447;DHT22;30152;52.066;5.358;2023-07-20T20:12:03;17.50;96.80
44447;DHT22;30152;52.066;5.358;2023-07-20T20:14:30;17.40;97.90
44447;DHT22;30152;52.066;5.358;2023-07-20T20:16:55;17.10;98.20
44447;DHT22;30152;52.066;5.358;2023-07-20T20:19:21;16.60;98.40
44447;DHT22;30152;52.066;5.358;2023-07-20T20:21:47;16.70;98.30
44447;DHT22;30152;52.066;5.358;2023-07-20T20:24:12;17.00;98.80
44447;DHT22;30152;52.066;5.358;2023-07-20T20:26:38;17.10;99.00
44447;DHT22;30152;52.066;5.358;2023-07-20T20:29:05;16.90;98.90
44447;DHT22;30152;52.066;5.358;2023-07-20T20:31:31;17.10;99.00
44447;DHT22;30152;52.066;5.358;2023-07-20T20:36:23;16.80;99.90
44447;DHT22;30152;52.066;5.358;2023-07-20T20:38:48;16.50;99.90
44447;DHT22;30152;52.066;5.358;2023-07-20T20:41:14;16.60;99.90
44447;DHT22;30152;52.066;5.358;2023-07-20T20:43:39;16.00;99.90
44447;DHT22;30152;52.066;5.358;2023-07-20T20:46:06;16.30;99.90
44447;DHT22;30152;52.066;5.358;2023-07-20T20:48:34;16.80;99.90
44447;DHT22;30152;52.066;5.358;2023-07-20T20:51:03;16.70;99.90
44447;DHT22;30152;52.066;5.358;2023-07-20T20:53:29;16.50;99.90
44447;DHT22;30152;52.066;5.358;2023-07-20T20:55:57;16.40;99.90
44447;DHT22;30152;52.066;5.358;2023-07-20T20:58:23;16.10;99.90
44447;DHT22;30152;52.066;5.358;2023-07-20T21:00:49;15.80;99.90
44447;DHT22;30152;52.066;5.358;2023-07-20T21:03:15;15.80;99.90
44447;DHT22;30152;52.066;5.358;2023-07-20T21:05:40;16.10;99.90
44447;DHT22;30152;52.066;5.358;2023-07-20T21:08:06;15.70;99.90
44447;DHT22;30152;52.066;5.358;2023-07-20T21:10:32;16.10;99.90
44447;DHT22;30152;52.066;5.358;2023-07-20T21:12:58;16.20;99.90
